KGJT/GJT METAR and TAF weather

Enter ICAO airport designator
Station Type Date Time Source
KGJT METAR 2024/04/17 17:53 UTC NOAA

KGJT 171753Z 29013G18KT 10SM CLR 21/M02 A2996 RMK AO2 SLP095 T02111022 10211 20094 58009


Station Type Date Time Source
KGJT Decoded METAR 2024/04/17 17:53 UTC NOAA

GRAND JUNCTION WALKER FIELD, CO, United States (KGJT) 39-08N 108-32W 1452M
Apr 17, 2024 - 01:53 PM EDT / 2024.04.17 1753 UTC
Wind: from the WNW (290 degrees) at 15 MPH (13 KT) gusting to 21 MPH (18 KT):0
Visibility: 10 mile(s):0
Sky conditions: clear
Temperature: 70.0 F (21.1 C)
Dew Point: 28.0 F (-2.2 C)
Relative Humidity: 20%
Pressure (altimeter): 29.96 in. Hg (1014 hPa)
Pressure tendency: 0.03 inches (0.9 hPa) lower than three hours ago
ob: KGJT 171753Z 29013G18KT 10SM CLR 21/M02 A2996 RMK AO2 SLP095 T02111022 10211 20094 58009
cycle: 18

Station Type Date Time Source
KGJT TAF 2024/04/17 18:36 UTC NOAA